sensor_id;sensor_type;location;lat;lon;timestamp;P1;P2;P0
70197;PMS5003;57582;-34.876;138.628;2023-08-06T00:02:54;0.00;0.00;0.00
70197;PMS5003;57582;-34.876;138.628;2023-08-06T00:05:53;0.00;0.00;0.00
70197;PMS5003;57582;-34.876;138.628;2023-08-06T00:08:53;0.00;0.00;0.00
70197;PMS5003;57582;-34.876;138.628;2023-08-06T00:11:53;0.00;0.00;0.00
70197;PMS5003;57582;-34.876;138.628;2023-08-06T00:14:54;0.20;0.20;0.00
70197;PMS5003;57582;-34.876;138.628;2023-08-06T00:17:53;0.33;0.00;0.00
70197;PMS5003;57582;-34.876;138.628;2023-08-06T00:20:53;0.00;0.00;0.00
70197;PMS5003;57582;-34.876;138.628;2023-08-06T00:23:53;0.00;0.00;0.00
70197;PMS5003;57582;-34.876;138.628;2023-08-06T00:26:54;0.00;0.00;0.00
70197;PMS5003;57582;-34.876;138.628;2023-08-06T00:29:53;0.00;0.00;0.00
70197;PMS5003;57582;-34.876;138.628;2023-08-06T00:32:53;0.00;0.00;0.00
70197;PMS5003;57582;-34.876;138.628;2023-08-06T00:35:53;0.00;0.00;0.00
70197;PMS5003;57582;-34.876;138.628;2023-08-06T00:38:54;0.10;0.07;0.00
70197;PMS5003;57582;-34.876;138.628;2023-08-06T00:41:53;0.00;0.00;0.00
70197;PMS5003;57582;-34.876;138.628;2023-08-06T00:44:54;0.00;0.00;0.00
70197;PMS5003;57582;-34.876;138.628;2023-08-06T00:47:53;0.00;0.00;0.00
70197;PMS5003;57582;-34.876;138.628;2023-08-06T00:50:54;0.00;0.00;0.00
70197;PMS5003;57582;-34.876;138.628;2023-08-06T00:53:55;0.20;0.00;0.00
70197;PMS5003;57582;-34.876;138.628;2023-08-06T00:56:53;0.03;0.00;0.00
70197;PMS5003;57582;-34.876;138.628;2023-08-06T00:59:54;1.40;0.00;0.00
70197;PMS5003;57582;-34.876;138.628;2023-08-06T01:02:54;0.40;0.03;0.00
70197;PMS5003;57582;-34.876;138.628;2023-08-06T01:05:54;0.00;0.00;0.00
70197;PMS5003;57582;-34.876;138.628;2023-08-06T01:09:00;0.30;0.00;0.00
70197;PMS5003;57582;-34.876;138.628;2023-08-06T01:12:05;0.00;0.00;0.00
70197;PMS5003;57582;-34.876;138.628;2023-08-06T01:15:03;0.00;0.00;0.00
70197;PMS5003;57582;-34.876;138.628;2023-08-06T01:17:54;0.33;0.33;0.00
70197;PMS5003;57582;-34.876;138.628;2023-08-06T01:20:53;0.20;0.00;0.00
70197;PMS5003;57582;-34.876;138.628;2023-08-06T01:23:54;0.60;0.00;0.00
70197;PMS5003;57582;-34.876;138.628;2023-08-06T01:27:03;0.03;0.00;0.00
70197;PMS5003;57582;-34.876;138.628;2023-08-06T01:30:03;0.00;0.00;0.00
70197;PMS5003;57582;-34.876;138.628;2023-08-06T01:32:58;0.43;0.00;0.00
70197;PMS5003;57582;-34.876;138.628;2023-08-06T01:35:54;0.63;0.00;0.00
70197;PMS5003;57582;-34.876;138.628;2023-08-06T01:38:54;0.00;0.00;0.00
70197;PMS5003;57582;-34.876;138.628;2023-08-06T01:41:53;1.30;0.40;0.10
70197;PMS5003;57582;-34.876;138.628;2023-08-06T01:44:53;1.93;0.40;0.00
70197;PMS5003;57582;-34.876;138.628;2023-08-06T01:47:53;0.63;0.30;0.00
70197;PMS5003;57582;-34.876;138.628;2023-08-06T01:50:54;0.00;0.00;0.00
70197;PMS5003;57582;-34.876;138.628;2023-08-06T01:53:54;0.10;0.00;0.00
70197;PMS5003;57582;-34.876;138.628;2023-08-06T01:56:54;0.03;0.00;0.00
70197;PMS5003;57582;-34.876;138.628;2023-08-06T01:59:54;0.00;0.00;0.00
70197;PMS5003;57582;-34.876;138.628;2023-08-06T02:02:54;0.00;0.00;0.00
70197;PMS5003;57582;-34.876;138.628;2023-08-06T02:05:53;0.00;0.00;0.00
70197;PMS5003;57582;-34.876;138.628;2023-08-06T02:08:53;0.90;0.00;0.00
70197;PMS5003;57582;-34.876;138.628;2023-08-06T02:11:54;0.03;0.00;0.00
70197;PMS5003;57582;-34.876;138.628;2023-08-06T02:14:54;0.73;0.00;0.00
70197;PMS5003;57582;-34.876;138.628;2023-08-06T02:17:54;0.00;0.00;0.00
70197;PMS5003;57582;-34.876;138.628;2023-08-06T02:20:56;1.07;0.40;0.00
70197;PMS5003;57582;-34.876;138.628;2023-08-06T02:23:54;0.80;0.00;0.00
70197;PMS5003;57582;-34.876;138.628;2023-08-06T02:26:54;0.30;0.23;0.00
70197;PMS5003;57582;-34.876;138.628;2023-08-06T02:29:53;0.00;0.00;0.00
70197;PMS5003;57582;-34.876;138.628;2023-08-06T02:32:53;0.50;0.17;0.00
70197;PMS5003;57582;-34.876;138.628;2023-08-06T02:36:02;0.00;0.00;0.00
70197;PMS5003;57582;-34.876;138.628;2023-08-06T02:38:54;0.00;0.00;0.00
70197;PMS5003;57582;-34.876;138.628;2023-08-06T02:41:53;0.33;0.33;0.00
70197;PMS5003;57582;-34.876;138.628;2023-08-06T02:44:53;0.73;0.00;0.00
70197;PMS5003;57582;-34.876;138.628;2023-08-06T02:47:53;0.90;0.00;0.00
70197;PMS5003;57582;-34.876;138.628;2023-08-06T02:50:57;0.27;0.00;0.00
70197;PMS5003;57582;-34.876;138.628;2023-08-06T02:53:53;0.60;0.00;0.00
70197;PMS5003;57582;-34.876;138.628;2023-08-06T02:56:53;0.07;0.00;0.00
70197;PMS5003;57582;-34.876;138.628;2023-08-06T02:59:54;0.57;0.20;0.00
70197;PMS5003;57582;-34.876;138.628;2023-08-06T03:02:54;0.00;0.00;0.00
70197;PMS5003;57582;-34.876;138.628;2023-08-06T03:05:54;0.90;0.00;0.00
70197;PMS5003;57582;-34.876;138.628;2023-08-06T03:08:54;0.00;0.00;0.00
70197;PMS5003;57582;-34.876;138.628;2023-08-06T03:11:53;0.10;0.10;0.00
70197;PMS5003;57582;-34.876;138.628;2023-08-06T03:14:54;0.40;0.20;0.00
70197;PMS5003;57582;-34.876;138.628;2023-08-06T03:17:56;0.93;0.50;0.00
70197;PMS5003;57582;-34.876;138.628;2023-08-06T03:20:54;1.03;0.37;0.00
70197;PMS5003;57582;-34.876;138.628;2023-08-06T03:23:54;0.00;0.00;0.00
70197;PMS5003;57582;-34.876;138.628;2023-08-06T03:26:54;0.00;0.00;0.00
70197;PMS5003;57582;-34.876;138.628;2023-08-06T03:29:54;0.23;0.23;0.00
70197;PMS5003;57582;-34.876;138.628;2023-08-06T03:32:54;0.60;0.07;0.03
70197;PMS5003;57582;-34.876;138.628;2023-08-06T03:35:54;0.80;0.00;0.00
70197;PMS5003;57582;-34.876;138.628;2023-08-06T03:38:54;0.40;0.40;0.00
70197;PMS5003;57582;-34.876;138.628;2023-08-06T03:41:54;0.03;0.03;0.00
70197;PMS5003;57582;-34.876;138.628;2023-08-06T03:44:54;0.00;0.00;0.00
70197;PMS5003;57582;-34.876;138.628;2023-08-06T03:47:54;0.00;0.00;0.00
70197;PMS5003;57582;-34.876;138.628;2023-08-06T03:50:54;0.00;0.00;0.00
70197;PMS5003;57582;-34.876;138.628;2023-08-06T03:53:54;0.30;0.30;0.00
70197;PMS5003;57582;-34.876;138.628;2023-08-06T03:56:54;0.13;0.13;0.00
70197;PMS5003;57582;-34.876;138.628;2023-08-06T03:59:54;0.17;0.17;0.00
70197;PMS5003;57582;-34.876;138.628;2023-08-06T04:02:54;0.27;0.27;0.00
70197;PMS5003;57582;-34.876;138.628;2023-08-06T04:05:54;0.00;0.00;0.00
70197;PMS5003;57582;-34.876;138.628;2023-08-06T04:08:54;0.00;0.00;0.00
70197;PMS5003;57582;-34.876;138.628;2023-08-06T04:20:55;0.00;0.00;0.00
70197;PMS5003;57582;-34.876;138.628;2023-08-06T04:23:54;0.00;0.00;0.00
70197;PMS5003;57582;-34.876;138.628;2023-08-06T04:26:54;0.00;0.00;0.00
70197;PMS5003;57582;-34.876;138.628;2023-08-06T04:29:54;0.03;0.03;0.00
70197;PMS5003;57582;-34.876;138.628;2023-08-06T04:32:56;0.30;0.30;0.03
70197;PMS5003;57582;-34.876;138.628;2023-08-06T04:35:55;0.20;0.20;0.00
70197;PMS5003;57582;-34.876;138.628;2023-08-06T04:38:54;0.00;0.00;0.00
70197;PMS5003;57582;-34.876;138.628;2023-08-06T04:41:55;0.83;0.43;0.00
70197;PMS5003;57582;-34.876;138.628;2023-08-06T04:44:54;0.00;0.00;0.00
70197;PMS5003;57582;-34.876;138.628;2023-08-06T04:47:54;0.33;0.33;0.03
70197;PMS5003;57582;-34.876;138.628;2023-08-06T04:50:54;0.13;0.13;0.00
70197;PMS5003;57582;-34.876;138.628;2023-08-06T04:53:54;0.00;0.00;0.00
70197;PMS5003;57582;-34.876;138.628;2023-08-06T04:56:54;0.70;0.70;0.27
70197;PMS5003;57582;-34.876;138.628;2023-08-06T04:59:54;0.40;0.40;0.27
70197;PMS5003;57582;-34.876;138.628;2023-08-06T05:02:54;0.77;0.77;0.00
70197;PMS5003;57582;-34.876;138.628;2023-08-06T05:05:54;0.67;0.30;0.00
70197;PMS5003;57582;-34.876;138.628;2023-08-06T05:17:54;0.97;0.13;0.00
70197;PMS5003;57582;-34.876;138.628;2023-08-06T05:21:19;unavailable;unavailable;unavailable
70197;PMS5003;57582;-34.876;138.628;2023-08-06T05:23:54;0.30;0.00;0.00
70197;PMS5003;57582;-34.876;138.628;2023-08-06T05:31:34;0.77;0.77;0.40
70197;PMS5003;57582;-34.876;138.628;2023-08-06T05:34:02;0.20;0.20;0.00
70197;PMS5003;57582;-34.876;138.628;2023-08-06T05:37:02;0.20;0.20;0.13
70197;PMS5003;57582;-34.876;138.628;2023-08-06T05:40:02;1.10;1.10;0.63
70197;PMS5003;57582;-34.876;138.628;2023-08-06T05:43:02;0.20;0.20;0.03
70197;PMS5003;57582;-34.876;138.628;2023-08-06T05:46:01;1.33;0.27;0.00
70197;PMS5003;57582;-34.876;138.628;2023-08-06T05:49:02;0.70;0.70;0.00
70197;PMS5003;57582;-34.876;138.628;2023-08-06T05:52:01;0.60;0.60;0.00
70197;PMS5003;57582;-34.876;138.628;2023-08-06T05:55:02;0.43;0.43;0.00
70197;PMS5003;57582;-34.876;138.628;2023-08-06T05:58:01;0.70;0.30;0.00
70197;PMS5003;57582;-34.876;138.628;2023-08-06T06:01:02;1.23;0.60;0.00
70197;PMS5003;57582;-34.876;138.628;2023-08-06T06:04:01;0.87;0.87;0.03
70197;PMS5003;57582;-34.876;138.628;2023-08-06T06:07:02;0.13;0.13;0.00
70197;PMS5003;57582;-34.876;138.628;2023-08-06T06:10:02;0.60;0.27;0.23
70197;PMS5003;57582;-34.876;138.628;2023-08-06T06:13:02;0.67;0.67;0.33
70197;PMS5003;57582;-34.876;138.628;2023-08-06T06:16:01;0.00;0.00;0.00
70197;PMS5003;57582;-34.876;138.628;2023-08-06T06:19:02;0.00;0.00;0.00
70197;PMS5003;57582;-34.876;138.628;2023-08-06T06:22:02;0.70;0.70;0.03
70197;PMS5003;57582;-34.876;138.628;2023-08-06T06:25:01;1.03;0.93;0.00
70197;PMS5003;57582;-34.876;138.628;2023-08-06T06:28:02;1.20;0.87;0.47
70197;PMS5003;57582;-34.876;138.628;2023-08-06T06:31:02;0.07;0.07;0.00
70197;PMS5003;57582;-34.876;138.628;2023-08-06T06:34:01;0.20;0.20;0.00
70197;PMS5003;57582;-34.876;138.628;2023-08-06T06:37:02;1.20;0.83;0.17
70197;PMS5003;57582;-34.876;138.628;2023-08-06T06:40:02;0.90;0.90;0.37
70197;PMS5003;57582;-34.876;138.628;2023-08-06T06:43:02;0.90;0.90;0.13
70197;PMS5003;57582;-34.876;138.628;2023-08-06T06:46:01;1.07;1.07;0.30
70197;PMS5003;57582;-34.876;138.628;2023-08-06T06:49:01;1.40;0.27;0.00
70197;PMS5003;57582;-34.876;138.628;2023-08-06T06:52:02;0.57;0.57;0.13
70197;PMS5003;57582;-34.876;138.628;2023-08-06T06:55:02;0.50;0.40;0.00
70197;PMS5003;57582;-34.876;138.628;2023-08-06T06:58:01;0.70;0.57;0.07
70197;PMS5003;57582;-34.876;138.628;2023-08-06T07:01:01;0.37;0.37;0.00
70197;PMS5003;57582;-34.876;138.628;2023-08-06T07:04:01;0.87;0.87;0.00
70197;PMS5003;57582;-34.876;138.628;2023-08-06T07:07:02;0.80;0.80;0.13
70197;PMS5003;57582;-34.876;138.628;2023-08-06T07:10:01;1.27;1.27;0.47
70197;PMS5003;57582;-34.876;138.628;2023-08-06T07:13:02;1.60;1.20;0.33
70197;PMS5003;57582;-34.876;138.628;2023-08-06T07:16:02;1.97;0.40;0.00
70197;PMS5003;57582;-34.876;138.628;2023-08-06T07:19:02;1.30;1.30;0.93
70197;PMS5003;57582;-34.876;138.628;2023-08-06T07:31:03;2.63;2.63;1.00
70197;PMS5003;57582;-34.876;138.628;2023-08-06T07:34:02;2.00;1.60;0.60
70197;PMS5003;57582;-34.876;138.628;2023-08-06T07:37:01;2.10;2.10;0.70
70197;PMS5003;57582;-34.876;138.628;2023-08-06T07:40:02;2.43;2.20;1.23
70197;PMS5003;57582;-34.876;138.628;2023-08-06T07:43:02;1.70;1.10;0.83
70197;PMS5003;57582;-34.876;138.628;2023-08-06T07:46:02;1.93;1.93;1.00
70197;PMS5003;57582;-34.876;138.628;2023-08-06T07:49:02;3.17;1.70;1.03
70197;PMS5003;57582;-34.876;138.628;2023-08-06T07:52:02;0.43;0.43;0.00
70197;PMS5003;57582;-34.876;138.628;2023-08-06T07:55:02;2.30;2.30;0.97
70197;PMS5003;57582;-34.876;138.628;2023-08-06T07:58:02;3.07;2.47;1.53
70197;PMS5003;57582;-34.876;138.628;2023-08-06T08:01:02;3.80;3.70;2.00
70197;PMS5003;57582;-34.876;138.628;2023-08-06T08:04:02;2.43;2.40;0.90
70197;PMS5003;57582;-34.876;138.628;2023-08-06T08:07:02;3.90;2.00;1.07
70197;PMS5003;57582;-34.876;138.628;2023-08-06T08:10:02;6.00;4.90;2.97
70197;PMS5003;57582;-34.876;138.628;2023-08-06T08:13:02;11.40;11.40;6.50
70197;PMS5003;57582;-34.876;138.628;2023-08-06T08:16:02;3.00;2.90;1.80
70197;PMS5003;57582;-34.876;138.628;2023-08-06T08:19:02;2.67;1.80;1.00
70197;PMS5003;57582;-34.876;138.628;2023-08-06T08:22:02;1.80;1.80;0.63
70197;PMS5003;57582;-34.876;138.628;2023-08-06T08:25:02;1.10;1.10;0.33
70197;PMS5003;57582;-34.876;138.628;2023-08-06T08:28:02;0.00;0.00;0.00
70197;PMS5003;57582;-34.876;138.628;2023-08-06T08:31:02;2.57;1.47;0.87
70197;PMS5003;57582;-34.876;138.628;2023-08-06T08:34:02;2.70;2.23;1.47
70197;PMS5003;57582;-34.876;138.628;2023-08-06T08:37:02;6.27;5.43;2.03
70197;PMS5003;57582;-34.876;138.628;2023-08-06T08:40:02;12.53;11.67;7.60
70197;PMS5003;57582;-34.876;138.628;2023-08-06T08:43:02;6.50;5.87;3.87
70197;PMS5003;57582;-34.876;138.628;2023-08-06T08:46:04;4.37;4.37;3.00
70197;PMS5003;57582;-34.876;138.628;2023-08-06T08:49:02;10.13;10.13;8.03
70197;PMS5003;57582;-34.876;138.628;2023-08-06T08:52:02;8.17;7.27;4.07
70197;PMS5003;57582;-34.876;138.628;2023-08-06T08:55:02;5.53;5.53;3.77
70197;PMS5003;57582;-34.876;138.628;2023-08-06T08:58:02;4.57;4.57;3.57
70197;PMS5003;57582;-34.876;138.628;2023-08-06T09:01:02;4.90;4.90;3.23
70197;PMS5003;57582;-34.876;138.628;2023-08-06T09:04:03;3.57;3.57;2.60
70197;PMS5003;57582;-34.876;138.628;2023-08-06T09:07:04;6.63;6.63;3.97
70197;PMS5003;57582;-34.876;138.628;2023-08-06T09:10:03;9.03;6.87;4.47
70197;PMS5003;57582;-34.876;138.628;2023-08-06T09:13:02;11.13;10.53;7.67
70197;PMS5003;57582;-34.876;138.628;2023-08-06T09:16:02;15.30;14.73;7.57
70197;PMS5003;57582;-34.876;138.628;2023-08-06T09:19:12;16.83;14.73;8.60
70197;PMS5003;57582;-34.876;138.628;2023-08-06T09:22:02;19.70;16.50;9.57
70197;PMS5003;57582;-34.876;138.628;2023-08-06T09:25:02;17.87;16.53;9.60
70197;PMS5003;57582;-34.876;138.628;2023-08-06T09:28:02;14.63;12.97;8.13
70197;PMS5003;57582;-34.876;138.628;2023-08-06T09:31:03;16.30;16.20;10.80
70197;PMS5003;57582;-34.876;138.628;2023-08-06T09:34:02;18.57;17.73;11.80
70197;PMS5003;57582;-34.876;138.628;2023-08-06T09:37:03;19.73;17.40;13.67
70197;PMS5003;57582;-34.876;138.628;2023-08-06T09:40:02;19.90;17.00;12.37
70197;PMS5003;57582;-34.876;138.628;2023-08-06T09:43:03;13.47;13.10;8.13
70197;PMS5003;57582;-34.876;138.628;2023-08-06T09:46:11;12.97;12.93;8.40
70197;PMS5003;57582;-34.876;138.628;2023-08-06T09:49:02;14.53;12.37;9.00
70197;PMS5003;57582;-34.876;138.628;2023-08-06T09:52:02;16.67;16.47;10.93
70197;PMS5003;57582;-34.876;138.628;2023-08-06T09:55:03;17.13;16.03;10.87
70197;PMS5003;57582;-34.876;138.628;2023-08-06T09:58:02;20.47;18.63;12.67
70197;PMS5003;57582;-34.876;138.628;2023-08-06T10:01:02;17.23;16.10;11.20
70197;PMS5003;57582;-34.876;138.628;2023-08-06T10:04:04;17.73;15.83;10.23
70197;PMS5003;57582;-34.876;138.628;2023-08-06T10:07:02;19.53;16.80;10.23
70197;PMS5003;57582;-34.876;138.628;2023-08-06T10:10:02;17.43;15.40;10.90
70197;PMS5003;57582;-34.876;138.628;2023-08-06T10:13:03;15.00;15.00;9.77
70197;PMS5003;57582;-34.876;138.628;2023-08-06T10:16:02;22.87;21.27;16.40
70197;PMS5003;57582;-34.876;138.628;2023-08-06T10:19:04;23.97;21.90;17.50
70197;PMS5003;57582;-34.876;138.628;2023-08-06T10:22:14;28.03;26.53;20.27
70197;PMS5003;57582;-34.876;138.628;2023-08-06T10:25:03;26.90;26.47;19.00
70197;PMS5003;57582;-34.876;138.628;2023-08-06T10:28:08;26.90;25.67;19.43
70197;PMS5003;57582;-34.876;138.628;2023-08-06T10:31:03;16.33;13.83;8.30
70197;PMS5003;57582;-34.876;138.628;2023-08-06T10:34:02;17.67;14.83;8.67
70197;PMS5003;57582;-34.876;138.628;2023-08-06T10:37:02;11.73;11.73;8.03
70197;PMS5003;57582;-34.876;138.628;2023-08-06T10:40:03;10.03;8.90;5.90
70197;PMS5003;57582;-34.876;138.628;2023-08-06T10:43:04;7.73;6.60;4.63
70197;PMS5003;57582;-34.876;138.628;2023-08-06T10:46:04;7.47;7.47;5.27
70197;PMS5003;57582;-34.876;138.628;2023-08-06T10:49:03;7.37;7.37;4.70
70197;PMS5003;57582;-34.876;138.628;2023-08-06T10:52:02;11.43;9.90;6.30
70197;PMS5003;57582;-34.876;138.628;2023-08-06T10:55:03;6.30;6.30;4.60
70197;PMS5003;57582;-34.876;138.628;2023-08-06T10:58:02;7.33;6.73;4.17
70197;PMS5003;57582;-34.876;138.628;2023-08-06T11:01:02;8.00;8.00;4.47
70197;PMS5003;57582;-34.876;138.628;2023-08-06T11:04:03;5.60;5.60;3.53
70197;PMS5003;57582;-34.876;138.628;2023-08-06T11:07:03;9.93;8.07;4.80
70197;PMS5003;57582;-34.876;138.628;2023-08-06T11:10:05;7.60;6.40;3.03
70197;PMS5003;57582;-34.876;138.628;2023-08-06T11:13:03;6.47;3.57;1.27
70197;PMS5003;57582;-34.876;138.628;2023-08-06T11:16:02;14.67;11.27;6.47
70197;PMS5003;57582;-34.876;138.628;2023-08-06T11:19:02;10.87;9.20;5.80
70197;PMS5003;57582;-34.876;138.628;2023-08-06T11:22:02;12.37;11.43;7.27
70197;PMS5003;57582;-34.876;138.628;2023-08-06T11:25:02;14.33;11.67;8.27
70197;PMS5003;57582;-34.876;138.628;2023-08-06T11:28:02;12.47;10.77;7.23
70197;PMS5003;57582;-34.876;138.628;2023-08-06T11:31:03;16.90;13.20;8.07
70197;PMS5003;57582;-34.876;138.628;2023-08-06T11:34:02;12.40;9.90;6.23
70197;PMS5003;57582;-34.876;138.628;2023-08-06T11:37:04;15.73;15.73;11.43
70197;PMS5003;57582;-34.876;138.628;2023-08-06T11:40:08;15.07;14.83;10.73
70197;PMS5003;57582;-34.876;138.628;2023-08-06T11:43:03;9.20;9.20;7.37
70197;PMS5003;57582;-34.876;138.628;2023-08-06T11:46:02;18.87;16.50;11.90
70197;PMS5003;57582;-34.876;138.628;2023-08-06T11:49:02;16.43;14.40;10.90
70197;PMS5003;57582;-34.876;138.628;2023-08-06T11:52:07;15.70;13.60;10.30
70197;PMS5003;57582;-34.876;138.628;2023-08-06T11:55:05;20.93;19.03;11.20
70197;PMS5003;57582;-34.876;138.628;2023-08-06T11:58:04;33.07;27.50;19.60
70197;PMS5003;57582;-34.876;138.628;2023-08-06T12:01:02;37.00;31.70;22.77
70197;PMS5003;57582;-34.876;138.628;2023-08-06T12:04:04;27.73;26.67;19.07
70197;PMS5003;57582;-34.876;138.628;2023-08-06T12:07:06;30.53;29.70;21.17
70197;PMS5003;57582;-34.876;138.628;2023-08-06T12:10:02;30.10;28.50;20.07
70197;PMS5003;57582;-34.876;138.628;2023-08-06T12:13:02;35.00;31.97;23.53
70197;PMS5003;57582;-34.876;138.628;2023-08-06T12:16:02;33.07;30.67;19.37
70197;PMS5003;57582;-34.876;138.628;2023-08-06T12:19:02;32.13;28.63;19.97
70197;PMS5003;57582;-34.876;138.628;2023-08-06T12:22:02;28.30;26.40;16.97
70197;PMS5003;57582;-34.876;138.628;2023-08-06T12:25:03;15.03;14.20;8.93
70197;PMS5003;57582;-34.876;138.628;2023-08-06T12:28:02;6.10;5.57;4.00
70197;PMS5003;57582;-34.876;138.628;2023-08-06T12:31:03;8.97;7.97;5.77
70197;PMS5003;57582;-34.876;138.628;2023-08-06T12:34:02;6.47;5.10;3.60
70197;PMS5003;57582;-34.876;138.628;2023-08-06T12:37:03;7.10;7.10;4.47
70197;PMS5003;57582;-34.876;138.628;2023-08-06T12:40:02;3.77;3.77;2.27
70197;PMS5003;57582;-34.876;138.628;2023-08-06T12:43:02;5.00;3.03;2.00
70197;PMS5003;57582;-34.876;138.628;2023-08-06T12:46:02;4.67;4.67;2.40
70197;PMS5003;57582;-34.876;138.628;2023-08-06T12:49:02;4.63;4.63;2.47
70197;PMS5003;57582;-34.876;138.628;2023-08-06T12:52:02;6.13;6.13;3.00
70197;PMS5003;57582;-34.876;138.628;2023-08-06T12:55:03;4.63;4.63;2.80
70197;PMS5003;57582;-34.876;138.628;2023-08-06T12:58:02;10.80;10.00;7.13
70197;PMS5003;57582;-34.876;138.628;2023-08-06T13:01:02;9.90;8.77;6.50
70197;PMS5003;57582;-34.876;138.628;2023-08-06T13:04:02;8.77;8.60;6.07
70197;PMS5003;57582;-34.876;138.628;2023-08-06T13:07:03;10.63;9.30;6.30
70197;PMS5003;57582;-34.876;138.628;2023-08-06T13:10:02;9.03;8.23;5.70
70197;PMS5003;57582;-34.876;138.628;2023-08-06T13:13:02;7.43;7.43;5.43
70197;PMS5003;57582;-34.876;138.628;2023-08-06T13:16:02;9.00;8.00;5.97
70197;PMS5003;57582;-34.876;138.628;2023-08-06T13:19:04;8.10;7.30;5.20
70197;PMS5003;57582;-34.876;138.628;2023-08-06T13:22:03;8.70;7.70;5.47
70197;PMS5003;57582;-34.876;138.628;2023-08-06T13:25:02;7.73;7.10;4.40
70197;PMS5003;57582;-34.876;138.628;2023-08-06T13:28:03;8.53;7.43;4.97
70197;PMS5003;57582;-34.876;138.628;2023-08-06T13:31:03;11.93;10.07;5.37
70197;PMS5003;57582;-34.876;138.628;2023-08-06T13:34:02;8.43;7.87;5.33
70197;PMS5003;57582;-34.876;138.628;2023-08-06T13:37:02;9.07;9.07;6.93
70197;PMS5003;57582;-34.876;138.628;2023-08-06T13:40:02;9.07;7.53;4.83
70197;PMS5003;57582;-34.876;138.628;2023-08-06T13:43:03;10.37;9.77;6.83
70197;PMS5003;57582;-34.876;138.628;2023-08-06T13:46:02;6.97;6.97;4.27
70197;PMS5003;57582;-34.876;138.628;2023-08-06T13:49:02;8.70;7.10;5.37
70197;PMS5003;57582;-34.876;138.628;2023-08-06T13:52:02;9.10;8.83;5.40
70197;PMS5003;57582;-34.876;138.628;2023-08-06T13:55:03;11.33;8.47;4.43
70197;PMS5003;57582;-34.876;138.628;2023-08-06T13:58:02;14.97;12.30;7.73
70197;PMS5003;57582;-34.876;138.628;2023-08-06T14:01:02;13.13;11.17;6.20
70197;PMS5003;57582;-34.876;138.628;2023-08-06T14:04:02;11.87;11.13;5.40
70197;PMS5003;57582;-34.876;138.628;2023-08-06T14:07:03;18.27;14.80;6.87
70197;PMS5003;57582;-34.876;138.628;2023-08-06T14:10:03;10.87;10.47;5.17
70197;PMS5003;57582;-34.876;138.628;2023-08-06T14:13:02;7.60;6.73;3.20
70197;PMS5003;57582;-34.876;138.628;2023-08-06T14:16:02;4.23;4.23;2.20
70197;PMS5003;57582;-34.876;138.628;2023-08-06T14:19:03;3.03;2.60;1.40
70197;PMS5003;57582;-34.876;138.628;2023-08-06T14:22:02;1.73;1.73;1.03
70197;PMS5003;57582;-34.876;138.628;2023-08-06T14:25:03;2.40;2.30;1.43
70197;PMS5003;57582;-34.876;138.628;2023-08-06T14:28:02;1.70;1.70;0.53
70197;PMS5003;57582;-34.876;138.628;2023-08-06T14:31:03;1.57;1.30;0.90
70197;PMS5003;57582;-34.876;138.628;2023-08-06T14:34:02;1.53;1.13;0.83
70197;PMS5003;57582;-34.876;138.628;2023-08-06T14:37:02;2.67;2.10;0.97
70197;PMS5003;57582;-34.876;138.628;2023-08-06T14:40:03;2.27;1.27;0.83
70197;PMS5003;57582;-34.876;138.628;2023-08-06T14:43:05;2.03;0.90;0.00
70197;PMS5003;57582;-34.876;138.628;2023-08-06T14:46:02;1.83;1.83;1.00
70197;PMS5003;57582;-34.876;138.628;2023-08-06T14:49:02;1.30;1.30;0.67
70197;PMS5003;57582;-34.876;138.628;2023-08-06T14:52:02;1.30;1.30;0.43
70197;PMS5003;57582;-34.876;138.628;2023-08-06T14:55:03;1.60;1.60;0.87
70197;PMS5003;57582;-34.876;138.628;2023-08-06T14:58:02;1.87;1.40;0.77
70197;PMS5003;57582;-34.876;138.628;2023-08-06T15:01:02;0.53;0.53;0.33
70197;PMS5003;57582;-34.876;138.628;2023-08-06T15:04:02;1.67;1.67;0.93
70197;PMS5003;57582;-34.876;138.628;2023-08-06T15:07:03;2.03;1.60;0.87
70197;PMS5003;57582;-34.876;138.628;2023-08-06T15:10:05;1.80;1.80;1.17
70197;PMS5003;57582;-34.876;138.628;2023-08-06T15:13:02;1.07;1.07;0.40
70197;PMS5003;57582;-34.876;138.628;2023-08-06T15:16:02;1.07;1.07;0.87
70197;PMS5003;57582;-34.876;138.628;2023-08-06T15:19:03;1.43;1.43;0.67
70197;PMS5003;57582;-34.876;138.628;2023-08-06T15:22:02;1.83;1.83;0.17
70197;PMS5003;57582;-34.876;138.628;2023-08-06T15:25:03;1.80;1.47;0.77
70197;PMS5003;57582;-34.876;138.628;2023-08-06T15:28:02;4.13;4.13;1.67
70197;PMS5003;57582;-34.876;138.628;2023-08-06T15:31:03;5.13;3.27;1.73
70197;PMS5003;57582;-34.876;138.628;2023-08-06T15:34:02;4.07;3.20;1.67
70197;PMS5003;57582;-34.876;138.628;2023-08-06T15:37:03;5.33;5.17;2.37
70197;PMS5003;57582;-34.876;138.628;2023-08-06T15:40:02;6.13;4.23;2.07
70197;PMS5003;57582;-34.876;138.628;2023-08-06T15:43:03;2.83;1.97;0.37
70197;PMS5003;57582;-34.876;138.628;2023-08-06T15:46:02;5.40;4.23;2.07
70197;PMS5003;57582;-34.876;138.628;2023-08-06T15:49:03;3.03;1.80;1.10
70197;PMS5003;57582;-34.876;138.628;2023-08-06T15:52:03;1.23;0.90;0.10
70197;PMS5003;57582;-34.876;138.628;2023-08-06T15:55:03;0.63;0.60;0.13
70197;PMS5003;57582;-34.876;138.628;2023-08-06T15:58:02;1.17;1.17;0.07
70197;PMS5003;57582;-34.876;138.628;2023-08-06T16:01:02;1.03;1.03;0.67
70197;PMS5003;57582;-34.876;138.628;2023-08-06T16:04:02;0.53;0.47;0.27
70197;PMS5003;57582;-34.876;138.628;2023-08-06T16:07:03;0.00;0.00;0.00
70197;PMS5003;57582;-34.876;138.628;2023-08-06T16:10:03;0.43;0.43;0.00
70197;PMS5003;57582;-34.876;138.628;2023-08-06T16:13:02;0.00;0.00;0.00
70197;PMS5003;57582;-34.876;138.628;2023-08-06T16:16:02;0.00;0.00;0.00
70197;PMS5003;57582;-34.876;138.628;2023-08-06T16:19:03;0.77;0.77;0.00
70197;PMS5003;57582;-34.876;138.628;2023-08-06T16:22:03;0.67;0.00;0.00
70197;PMS5003;57582;-34.876;138.628;2023-08-06T16:25:02;0.43;0.17;0.00
70197;PMS5003;57582;-34.876;138.628;2023-08-06T16:28:03;1.13;0.23;0.00
70197;PMS5003;57582;-34.876;138.628;2023-08-06T16:31:03;0.00;0.00;0.00
70197;PMS5003;57582;-34.876;138.628;2023-08-06T16:34:03;0.07;0.07;0.00
70197;PMS5003;57582;-34.876;138.628;2023-08-06T16:37:02;0.20;0.20;0.00
70197;PMS5003;57582;-34.876;138.628;2023-08-06T16:40:04;0.30;0.30;0.00
70197;PMS5003;57582;-34.876;138.628;2023-08-06T16:43:03;0.90;0.90;0.03
70197;PMS5003;57582;-34.876;138.628;2023-08-06T16:46:03;1.10;0.43;0.00
70197;PMS5003;57582;-34.876;138.628;2023-08-06T16:49:03;0.33;0.33;0.00
70197;PMS5003;57582;-34.876;138.628;2023-08-06T16:52:03;0.93;0.30;0.00
70197;PMS5003;57582;-34.876;138.628;2023-08-06T16:55:03;1.23;0.20;0.00
70197;PMS5003;57582;-34.876;138.628;2023-08-06T16:58:02;0.00;0.00;0.00
70197;PMS5003;57582;-34.876;138.628;2023-08-06T17:01:03;0.77;0.77;0.03
70197;PMS5003;57582;-34.876;138.628;2023-08-06T17:04:02;0.30;0.30;0.00
70197;PMS5003;57582;-34.876;138.628;2023-08-06T17:07:03;0.00;0.00;0.00
70197;PMS5003;57582;-34.876;138.628;2023-08-06T17:10:03;0.10;0.10;0.03
70197;PMS5003;57582;-34.876;138.628;2023-08-06T17:13:03;0.00;0.00;0.00